sensor_id;sensor_type;location;lat;lon;timestamp;temperature;humidity
16102;DHT22;56411;52.964;10.540;2023-07-13T00:24:40;15.00;99.90
16102;DHT22;56411;52.964;10.540;2023-07-13T00:38:59;14.60;99.90
16102;DHT22;56411;52.964;10.540;2023-07-13T00:42:05;14.50;99.90
16102;DHT22;56411;52.964;10.540;2023-07-13T00:49:13;14.40;99.90
16102;DHT22;56411;52.964;10.540;2023-07-13T00:52:07;14.30;99.90
16102;DHT22;56411;52.964;10.540;2023-07-13T00:54:50;14.30;99.90
16102;DHT22;56411;52.964;10.540;2023-07-13T00:57:48;14.20;99.90
16102;DHT22;56411;52.964;10.540;2023-07-13T01:00:45;14.20;99.90
16102;DHT22;56411;52.964;10.540;2023-07-13T01:03:39;14.20;99.90
16102;DHT22;56411;52.964;10.540;2023-07-13T01:10:04;14.00;99.90
16102;DHT22;56411;52.964;10.540;2023-07-13T01:12:55;14.00;99.90
16102;DHT22;56411;52.964;10.540;2023-07-13T01:16:23;13.90;99.90
16102;DHT22;56411;52.964;10.540;2023-07-13T01:19:15;14.00;99.90
16102;DHT22;56411;52.964;10.540;2023-07-13T01:22:13;14.00;99.90
16102;DHT22;56411;52.964;10.540;2023-07-13T01:25:50;13.90;99.90
16102;DHT22;56411;52.964;10.540;2023-07-13T01:28:03;13.80;99.90
16102;DHT22;56411;52.964;10.540;2023-07-13T01:30:49;13.70;99.90
16102;DHT22;56411;52.964;10.540;2023-07-13T01:33:40;13.60;99.90
16102;DHT22;56411;52.964;10.540;2023-07-13T01:36:21;13.50;99.90
16102;DHT22;56411;52.964;10.540;2023-07-13T01:38:54;13.50;99.90
16102;DHT22;56411;52.964;10.540;2023-07-13T01:41:24;13.50;99.90
16102;DHT22;56411;52.964;10.540;2023-07-13T01:43:54;13.50;99.90
16102;DHT22;56411;52.964;10.540;2023-07-13T01:46:21;13.40;99.90
16102;DHT22;56411;52.964;10.540;2023-07-13T01:49:39;13.40;99.90
16102;DHT22;56411;52.964;10.540;2023-07-13T01:52:23;13.40;99.90
16102;DHT22;56411;52.964;10.540;2023-07-13T01:55:43;13.40;99.90
16102;DHT22;56411;52.964;10.540;2023-07-13T01:58:22;13.20;99.90
16102;DHT22;56411;52.964;10.540;2023-07-13T02:01:12;13.20;99.90
16102;DHT22;56411;52.964;10.540;2023-07-13T02:03:51;13.10;99.90
16102;DHT22;56411;52.964;10.540;2023-07-13T02:06:44;13.10;99.90
16102;DHT22;56411;52.964;10.540;2023-07-13T02:09:26;13.10;99.90
16102;DHT22;56411;52.964;10.540;2023-07-13T02:12:12;13.10;99.90
16102;DHT22;56411;52.964;10.540;2023-07-13T02:14:42;13.10;99.90
16102;DHT22;56411;52.964;10.540;2023-07-13T02:17:14;13.00;99.90
16102;DHT22;56411;52.964;10.540;2023-07-13T02:19:43;12.90;99.90
16102;DHT22;56411;52.964;10.540;2023-07-13T02:22:10;12.80;99.90
16102;DHT22;56411;52.964;10.540;2023-07-13T02:24:38;12.80;99.90
16102;DHT22;56411;52.964;10.540;2023-07-13T02:27:06;12.80;99.90
16102;DHT22;56411;52.964;10.540;2023-07-13T02:29:35;12.80;99.90
16102;DHT22;56411;52.964;10.540;2023-07-13T02:32:09;12.80;99.90
16102;DHT22;56411;52.964;10.540;2023-07-13T02:34:36;12.80;99.90
16102;DHT22;56411;52.964;10.540;2023-07-13T02:37:06;12.90;99.90
16102;DHT22;56411;52.964;10.540;2023-07-13T02:39:37;13.10;99.90
16102;DHT22;56411;52.964;10.540;2023-07-13T02:42:05;13.20;99.90
16102;DHT22;56411;52.964;10.540;2023-07-13T02:44:32;13.10;99.90
16102;DHT22;56411;52.964;10.540;2023-07-13T02:47:02;13.10;99.90
16102;DHT22;56411;52.964;10.540;2023-07-13T02:49:35;13.00;99.90
16102;DHT22;56411;52.964;10.540;2023-07-13T02:52:04;13.00;99.90
16102;DHT22;56411;52.964;10.540;2023-07-13T02:54:38;12.90;99.90
16102;DHT22;56411;52.964;10.540;2023-07-13T02:57:12;12.80;99.90
16102;DHT22;56411;52.964;10.540;2023-07-13T02:59:41;12.60;99.90
16102;DHT22;56411;52.964;10.540;2023-07-13T03:02:11;12.60;99.90
16102;DHT22;56411;52.964;10.540;2023-07-13T03:05:06;12.60;99.90
16102;DHT22;56411;52.964;10.540;2023-07-13T03:07:48;12.50;99.90
16102;DHT22;56411;52.964;10.540;2023-07-13T03:10:41;12.50;99.90
16102;DHT22;56411;52.964;10.540;2023-07-13T03:13:18;12.60;99.90
16102;DHT22;56411;52.964;10.540;2023-07-13T03:15:53;12.60;99.90
16102;DHT22;56411;52.964;10.540;2023-07-13T03:18:29;12.70;99.90
16102;DHT22;56411;52.964;10.540;2023-07-13T03:21:04;12.70;99.90
16102;DHT22;56411;52.964;10.540;2023-07-13T03:23:39;12.80;99.90
16102;DHT22;56411;52.964;10.540;2023-07-13T03:26:38;12.80;99.90
16102;DHT22;56411;52.964;10.540;2023-07-13T03:29:21;12.80;99.90
16102;DHT22;56411;52.964;10.540;2023-07-13T03:32:02;12.70;99.90
16102;DHT22;56411;52.964;10.540;2023-07-13T03:34:56;12.80;99.90
16102;DHT22;56411;52.964;10.540;2023-07-13T03:37:32;12.70;99.90
16102;DHT22;56411;52.964;10.540;2023-07-13T03:40:16;12.70;99.90
16102;DHT22;56411;52.964;10.540;2023-07-13T03:43:15;12.70;99.90
16102;DHT22;56411;52.964;10.540;2023-07-13T03:45:43;12.70;99.90
16102;DHT22;56411;52.964;10.540;2023-07-13T03:48:13;12.70;99.90
16102;DHT22;56411;52.964;10.540;2023-07-13T03:50:42;12.80;99.90
16102;DHT22;56411;52.964;10.540;2023-07-13T03:53:09;12.80;99.90
16102;DHT22;56411;52.964;10.540;2023-07-13T03:55:36;12.80;99.90
16102;DHT22;56411;52.964;10.540;2023-07-13T03:58:26;12.80;99.90
16102;DHT22;56411;52.964;10.540;2023-07-13T04:00:54;12.80;99.90
16102;DHT22;56411;52.964;10.540;2023-07-13T04:03:26;12.80;99.90
16102;DHT22;56411;52.964;10.540;2023-07-13T04:05:56;12.90;99.90
16102;DHT22;56411;52.964;10.540;2023-07-13T04:08:26;12.90;99.90
16102;DHT22;56411;52.964;10.540;2023-07-13T04:10:53;12.90;99.90
16102;DHT22;56411;52.964;10.540;2023-07-13T04:13:43;12.90;99.90
16102;DHT22;56411;52.964;10.540;2023-07-13T04:16:25;12.90;99.90
16102;DHT22;56411;52.964;10.540;2023-07-13T04:19:10;13.00;99.90
16102;DHT22;56411;52.964;10.540;2023-07-13T04:22:03;13.00;99.90
16102;DHT22;56411;52.964;10.540;2023-07-13T04:25:15;13.00;99.90
16102;DHT22;56411;52.964;10.540;2023-07-13T04:27:54;13.10;99.90
16102;DHT22;56411;52.964;10.540;2023-07-13T04:30:23;13.10;99.90
16102;DHT22;56411;52.964;10.540;2023-07-13T04:36:29;13.20;99.90
16102;DHT22;56411;52.964;10.540;2023-07-13T04:39:31;13.30;99.90
16102;DHT22;56411;52.964;10.540;2023-07-13T04:41:58;13.30;99.90
16102;DHT22;56411;52.964;10.540;2023-07-13T04:44:25;13.30;99.90
16102;DHT22;56411;52.964;10.540;2023-07-13T04:46:52;13.40;99.90
16102;DHT22;56411;52.964;10.540;2023-07-13T04:49:19;13.60;99.90
16102;DHT22;56411;52.964;10.540;2023-07-13T04:51:46;13.80;99.90
16102;DHT22;56411;52.964;10.540;2023-07-13T04:54:13;13.90;99.90
16102;DHT22;56411;52.964;10.540;2023-07-13T04:56:42;13.90;99.90
16102;DHT22;56411;52.964;10.540;2023-07-13T04:59:09;14.00;99.90
16102;DHT22;56411;52.964;10.540;2023-07-13T05:01:36;14.10;99.90
16102;DHT22;56411;52.964;10.540;2023-07-13T05:04:04;14.20;99.90
16102;DHT22;56411;52.964;10.540;2023-07-13T05:06:31;14.30;99.90
16102;DHT22;56411;52.964;10.540;2023-07-13T05:08:58;14.30;99.90
16102;DHT22;56411;52.964;10.540;2023-07-13T05:11:25;14.40;99.90
16102;DHT22;56411;52.964;10.540;2023-07-13T05:13:54;14.50;99.90
16102;DHT22;56411;52.964;10.540;2023-07-13T05:16:21;14.60;99.90
16102;DHT22;56411;52.964;10.540;2023-07-13T05:18:48;14.70;99.90
16102;DHT22;56411;52.964;10.540;2023-07-13T05:21:15;14.80;99.90
16102;DHT22;56411;52.964;10.540;2023-07-13T05:23:42;14.90;99.90
16102;DHT22;56411;52.964;10.540;2023-07-13T05:26:10;14.90;99.90
16102;DHT22;56411;52.964;10.540;2023-07-13T05:28:37;15.00;99.90
16102;DHT22;56411;52.964;10.540;2023-07-13T05:31:07;15.10;99.90
16102;DHT22;56411;52.964;10.540;2023-07-13T05:33:34;15.20;99.90
16102;DHT22;56411;52.964;10.540;2023-07-13T05:36:01;15.30;99.90
16102;DHT22;56411;52.964;10.540;2023-07-13T05:38:29;15.40;99.90
16102;DHT22;56411;52.964;10.540;2023-07-13T05:40:57;15.50;99.90
16102;DHT22;56411;52.964;10.540;2023-07-13T05:43:24;15.60;99.90
16102;DHT22;56411;52.964;10.540;2023-07-13T05:45:52;15.70;99.90
16102;DHT22;56411;52.964;10.540;2023-07-13T05:48:21;15.80;99.90
16102;DHT22;56411;52.964;10.540;2023-07-13T05:50:49;15.90;99.90
16102;DHT22;56411;52.964;10.540;2023-07-13T05:53:16;15.90;99.90
16102;DHT22;56411;52.964;10.540;2023-07-13T05:55:44;16.00;99.90
16102;DHT22;56411;52.964;10.540;2023-07-13T05:58:13;16.10;99.90
16102;DHT22;56411;52.964;10.540;2023-07-13T06:00:40;16.10;99.90
16102;DHT22;56411;52.964;10.540;2023-07-13T06:03:07;16.30;99.90
16102;DHT22;56411;52.964;10.540;2023-07-13T06:05:37;16.30;99.90
16102;DHT22;56411;52.964;10.540;2023-07-13T06:08:05;16.40;99.90
16102;DHT22;56411;52.964;10.540;2023-07-13T06:10:32;16.40;99.90
16102;DHT22;56411;52.964;10.540;2023-07-13T06:13:00;16.50;99.90
16102;DHT22;56411;52.964;10.540;2023-07-13T06:15:27;16.50;99.90
16102;DHT22;56411;52.964;10.540;2023-07-13T06:17:54;16.50;99.90
16102;DHT22;56411;52.964;10.540;2023-07-13T06:20:21;16.60;99.90
16102;DHT22;56411;52.964;10.540;2023-07-13T06:22:51;16.60;99.90
16102;DHT22;56411;52.964;10.540;2023-07-13T06:25:18;16.70;99.90
16102;DHT22;56411;52.964;10.540;2023-07-13T06:27:45;16.80;99.90
16102;DHT22;56411;52.964;10.540;2023-07-13T06:30:13;16.90;99.90
16102;DHT22;56411;52.964;10.540;2023-07-13T06:32:40;17.00;99.90
16102;DHT22;56411;52.964;10.540;2023-07-13T06:35:07;17.00;99.90
16102;DHT22;56411;52.964;10.540;2023-07-13T06:37:38;17.10;99.90
16102;DHT22;56411;52.964;10.540;2023-07-13T06:40:09;17.20;99.90
16102;DHT22;56411;52.964;10.540;2023-07-13T06:42:36;17.20;99.90
16102;DHT22;56411;52.964;10.540;2023-07-13T06:45:05;17.30;99.90
16102;DHT22;56411;52.964;10.540;2023-07-13T06:47:32;17.40;99.90
16102;DHT22;56411;52.964;10.540;2023-07-13T06:50:00;17.40;99.90
16102;DHT22;56411;52.964;10.540;2023-07-13T06:52:27;17.50;99.90
16102;DHT22;56411;52.964;10.540;2023-07-13T06:54:54;17.50;99.90
16102;DHT22;56411;52.964;10.540;2023-07-13T06:57:23;17.50;99.90
16102;DHT22;56411;52.964;10.540;2023-07-13T06:59:50;17.60;99.90
16102;DHT22;56411;52.964;10.540;2023-07-13T07:02:17;17.60;99.90
16102;DHT22;56411;52.964;10.540;2023-07-13T07:04:44;17.70;99.90
16102;DHT22;56411;52.964;10.540;2023-07-13T07:07:12;17.90;99.90
16102;DHT22;56411;52.964;10.540;2023-07-13T07:09:39;18.00;99.90
16102;DHT22;56411;52.964;10.540;2023-07-13T07:12:07;18.10;99.90
16102;DHT22;56411;52.964;10.540;2023-07-13T07:14:35;18.20;99.90
16102;DHT22;56411;52.964;10.540;2023-07-13T07:17:02;18.20;99.90
16102;DHT22;56411;52.964;10.540;2023-07-13T07:19:30;18.30;99.90
16102;DHT22;56411;52.964;10.540;2023-07-13T07:21:57;18.40;99.90
16102;DHT22;56411;52.964;10.540;2023-07-13T07:24:24;18.60;99.90
16102;DHT22;56411;52.964;10.540;2023-07-13T07:26:52;18.60;99.90
16102;DHT22;56411;52.964;10.540;2023-07-13T07:29:19;18.60;99.90
16102;DHT22;56411;52.964;10.540;2023-07-13T07:31:47;18.70;99.90
16102;DHT22;56411;52.964;10.540;2023-07-13T07:34:15;18.80;99.90
16102;DHT22;56411;52.964;10.540;2023-07-13T07:36:42;18.70;99.90
16102;DHT22;56411;52.964;10.540;2023-07-13T07:39:09;18.80;99.90
16102;DHT22;56411;52.964;10.540;2023-07-13T07:41:37;18.90;99.90
16102;DHT22;56411;52.964;10.540;2023-07-13T07:44:04;18.90;99.90
16102;DHT22;56411;52.964;10.540;2023-07-13T07:46:33;19.00;99.90
16102;DHT22;56411;52.964;10.540;2023-07-13T07:49:01;19.10;99.90
16102;DHT22;56411;52.964;10.540;2023-07-13T07:51:29;19.30;99.90
16102;DHT22;56411;52.964;10.540;2023-07-13T07:53:56;19.40;99.90
16102;DHT22;56411;52.964;10.540;2023-07-13T07:56:23;19.50;99.90
16102;DHT22;56411;52.964;10.540;2023-07-13T07:58:50;19.40;99.90
16102;DHT22;56411;52.964;10.540;2023-07-13T08:01:18;19.40;99.90
16102;DHT22;56411;52.964;10.540;2023-07-13T08:03:45;19.40;99.90
16102;DHT22;56411;52.964;10.540;2023-07-13T08:06:14;19.40;99.90
16102;DHT22;56411;52.964;10.540;2023-07-13T08:08:41;19.30;99.90
16102;DHT22;56411;52.964;10.540;2023-07-13T08:11:08;19.30;99.90
16102;DHT22;56411;52.964;10.540;2023-07-13T08:13:37;19.30;99.90
16102;DHT22;56411;52.964;10.540;2023-07-13T08:16:05;19.40;99.90
16102;DHT22;56411;52.964;10.540;2023-07-13T08:18:33;19.50;99.90
16102;DHT22;56411;52.964;10.540;2023-07-13T08:21:03;19.60;99.90
16102;DHT22;56411;52.964;10.540;2023-07-13T08:23:33;19.70;99.90
16102;DHT22;56411;52.964;10.540;2023-07-13T08:26:00;19.70;99.90
16102;DHT22;56411;52.964;10.540;2023-07-13T08:28:28;19.70;99.90
16102;DHT22;56411;52.964;10.540;2023-07-13T08:30:55;19.70;99.90
16102;DHT22;56411;52.964;10.540;2023-07-13T08:33:26;19.70;99.90
16102;DHT22;56411;52.964;10.540;2023-07-13T08:35:53;19.80;99.90
16102;DHT22;56411;52.964;10.540;2023-07-13T08:38:21;19.70;99.90
16102;DHT22;56411;52.964;10.540;2023-07-13T08:40:55;19.60;99.90
16102;DHT22;56411;52.964;10.540;2023-07-13T08:43:26;19.60;99.90
16102;DHT22;56411;52.964;10.540;2023-07-13T08:45:57;19.70;99.90
16102;DHT22;56411;52.964;10.540;2023-07-13T08:48:27;19.70;99.90
16102;DHT22;56411;52.964;10.540;2023-07-13T08:50:58;19.70;99.90
16102;DHT22;56411;52.964;10.540;2023-07-13T08:53:33;19.80;99.90
16102;DHT22;56411;52.964;10.540;2023-07-13T08:56:03;20.10;99.90
16102;DHT22;56411;52.964;10.540;2023-07-13T08:58:32;20.10;99.90
16102;DHT22;56411;52.964;10.540;2023-07-13T09:01:12;20.30;99.90
16102;DHT22;56411;52.964;10.540;2023-07-13T09:03:46;20.40;99.90
16102;DHT22;56411;52.964;10.540;2023-07-13T09:06:17;20.40;99.90
16102;DHT22;56411;52.964;10.540;2023-07-13T09:08:51;20.30;99.90
16102;DHT22;56411;52.964;10.540;2023-07-13T09:11:41;20.40;99.90
16102;DHT22;56411;52.964;10.540;2023-07-13T09:14:26;20.60;99.90
16102;DHT22;56411;52.964;10.540;2023-07-13T09:17:02;21.00;99.90
16102;DHT22;56411;52.964;10.540;2023-07-13T09:19:32;21.30;99.90
16102;DHT22;56411;52.964;10.540;2023-07-13T09:22:03;21.40;99.90
16102;DHT22;56411;52.964;10.540;2023-07-13T09:24:36;21.40;99.90
16102;DHT22;56411;52.964;10.540;2023-07-13T09:27:12;21.20;99.90
16102;DHT22;56411;52.964;10.540;2023-07-13T09:29:47;21.00;99.90
16102;DHT22;56411;52.964;10.540;2023-07-13T09:32:18;20.90;99.90
16102;DHT22;56411;52.964;10.540;2023-07-13T09:34:51;20.90;99.90
16102;DHT22;56411;52.964;10.540;2023-07-13T09:37:21;21.20;99.90
16102;DHT22;56411;52.964;10.540;2023-07-13T09:39:49;21.20;99.90
16102;DHT22;56411;52.964;10.540;2023-07-13T09:42:21;21.30;99.90
16102;DHT22;56411;52.964;10.540;2023-07-13T09:44:54;21.30;99.90
16102;DHT22;56411;52.964;10.540;2023-07-13T09:47:23;21.20;99.90
16102;DHT22;56411;52.964;10.540;2023-07-13T09:49:56;21.10;99.90
16102;DHT22;56411;52.964;10.540;2023-07-13T09:52:26;21.00;99.90
16102;DHT22;56411;52.964;10.540;2023-07-13T09:54:54;21.10;99.90
16102;DHT22;56411;52.964;10.540;2023-07-13T09:57:27;21.20;99.90
16102;DHT22;56411;52.964;10.540;2023-07-13T09:59:55;21.20;99.90
16102;DHT22;56411;52.964;10.540;2023-07-13T10:02:27;21.30;99.90
16102;DHT22;56411;52.964;10.540;2023-07-13T10:04:58;21.60;99.90
16102;DHT22;56411;52.964;10.540;2023-07-13T10:07:25;21.80;99.90
16102;DHT22;56411;52.964;10.540;2023-07-13T10:09:53;21.90;99.90
16102;DHT22;56411;52.964;10.540;2023-07-13T10:12:21;21.90;99.90
16102;DHT22;56411;52.964;10.540;2023-07-13T10:14:53;21.80;99.90
16102;DHT22;56411;52.964;10.540;2023-07-13T10:17:27;22.00;99.90
16102;DHT22;56411;52.964;10.540;2023-07-13T10:19:59;21.90;99.90
16102;DHT22;56411;52.964;10.540;2023-07-13T10:22:36;22.00;99.90
16102;DHT22;56411;52.964;10.540;2023-07-13T10:25:16;22.00;99.90
16102;DHT22;56411;52.964;10.540;2023-07-13T10:27:45;22.30;99.90
16102;DHT22;56411;52.964;10.540;2023-07-13T10:30:18;22.30;99.90
16102;DHT22;56411;52.964;10.540;2023-07-13T10:32:46;22.50;99.90
16102;DHT22;56411;52.964;10.540;2023-07-13T10:35:15;22.30;99.90
16102;DHT22;56411;52.964;10.540;2023-07-13T10:37:49;22.20;99.90
16102;DHT22;56411;52.964;10.540;2023-07-13T10:40:21;22.20;99.90
16102;DHT22;56411;52.964;10.540;2023-07-13T10:42:51;22.30;99.90
16102;DHT22;56411;52.964;10.540;2023-07-13T10:45:22;22.60;99.90
16102;DHT22;56411;52.964;10.540;2023-07-13T10:47:52;22.40;99.90
16102;DHT22;56411;52.964;10.540;2023-07-13T10:50:23;22.30;99.90
16102;DHT22;56411;52.964;10.540;2023-07-13T10:52:52;22.10;99.90
16102;DHT22;56411;52.964;10.540;2023-07-13T10:55:37;21.90;99.90
16102;DHT22;56411;52.964;10.540;2023-07-13T10:58:13;21.90;99.90
16102;DHT22;56411;52.964;10.540;2023-07-13T11:00:49;22.30;99.90
16102;DHT22;56411;52.964;10.540;2023-07-13T11:03:20;22.00;99.90
16102;DHT22;56411;52.964;10.540;2023-07-13T11:05:52;21.70;99.90
16102;DHT22;56411;52.964;10.540;2023-07-13T11:08:35;21.70;99.90
16102;DHT22;56411;52.964;10.540;2023-07-13T11:11:35;21.70;99.90
16102;DHT22;56411;52.964;10.540;2023-07-13T11:14:03;22.10;99.90
16102;DHT22;56411;52.964;10.540;2023-07-13T11:16:41;22.60;99.90
16102;DHT22;56411;52.964;10.540;2023-07-13T11:19:28;22.80;99.90
16102;DHT22;56411;52.964;10.540;2023-07-13T11:22:14;22.70;99.90
16102;DHT22;56411;52.964;10.540;2023-07-13T11:27:40;22.50;99.90
16102;DHT22;56411;52.964;10.540;2023-07-13T11:30:31;22.40;99.90
16102;DHT22;56411;52.964;10.540;2023-07-13T11:33:13;22.50;99.90
16102;DHT22;56411;52.964;10.540;2023-07-13T11:35:50;22.60;99.90
16102;DHT22;56411;52.964;10.540;2023-07-13T11:38:19;22.50;99.90
16102;DHT22;56411;52.964;10.540;2023-07-13T11:40:48;22.30;99.90
16102;DHT22;56411;52.964;10.540;2023-07-13T11:43:17;22.20;99.90
16102;DHT22;56411;52.964;10.540;2023-07-13T11:45:44;22.30;99.90
16102;DHT22;56411;52.964;10.540;2023-07-13T11:48:21;22.40;99.90
16102;DHT22;56411;52.964;10.540;2023-07-13T11:50:55;22.20;99.90
16102;DHT22;56411;52.964;10.540;2023-07-13T11:53:25;22.20;99.90
16102;DHT22;56411;52.964;10.540;2023-07-13T11:55:53;22.10;99.90
16102;DHT22;56411;52.964;10.540;2023-07-13T11:58:23;22.00;99.90
16102;DHT22;56411;52.964;10.540;2023-07-13T12:00:52;22.90;99.90
16102;DHT22;56411;52.964;10.540;2023-07-13T12:03:22;24.40;99.90
16102;DHT22;56411;52.964;10.540;2023-07-13T12:05:59;25.00;99.90
16102;DHT22;56411;52.964;10.540;2023-07-13T12:08:27;25.70;99.90
16102;DHT22;56411;52.964;10.540;2023-07-13T12:11:03;26.00;99.90
16102;DHT22;56411;52.964;10.540;2023-07-13T12:13:36;26.40;99.90
16102;DHT22;56411;52.964;10.540;2023-07-13T12:16:12;26.10;99.90
16102;DHT22;56411;52.964;10.540;2023-07-13T12:18:43;26.20;99.90
16102;DHT22;56411;52.964;10.540;2023-07-13T12:21:17;26.80;99.90
16102;DHT22;56411;52.964;10.540;2023-07-13T12:23:47;26.10;99.90
16102;DHT22;56411;52.964;10.540;2023-07-13T12:26:17;26.20;99.90
16102;DHT22;56411;52.964;10.540;2023-07-13T12:28:47;26.70;99.90
16102;DHT22;56411;52.964;10.540;2023-07-13T12:31:29;27.00;99.90
16102;DHT22;56411;52.964;10.540;2023-07-13T12:34:00;26.50;99.80
16102;DHT22;56411;52.964;10.540;2023-07-13T12:36:31;26.90;99.90
16102;DHT22;56411;52.964;10.540;2023-07-13T12:39:04;27.50;99.70
16102;DHT22;56411;52.964;10.540;2023-07-13T12:41:32;27.80;99.90
16102;DHT22;56411;52.964;10.540;2023-07-13T12:44:00;28.10;99.90
16102;DHT22;56411;52.964;10.540;2023-07-13T12:46:27;28.40;97.70
16102;DHT22;56411;52.964;10.540;2023-07-13T12:48:58;28.30;98.10
16102;DHT22;56411;52.964;10.540;2023-07-13T12:51:27;28.10;98.10
16102;DHT22;56411;52.964;10.540;2023-07-13T12:53:59;27.60;98.80
16102;DHT22;56411;52.964;10.540;2023-07-13T12:56:33;28.00;98.30
16102;DHT22;56411;52.964;10.540;2023-07-13T12:59:02;28.70;97.70
16102;DHT22;56411;52.964;10.540;2023-07-13T13:01:34;28.60;96.80
16102;DHT22;56411;52.964;10.540;2023-07-13T13:04:04;29.00;96.80
16102;DHT22;56411;52.964;10.540;2023-07-13T13:06:35;29.00;96.10
16102;DHT22;56411;52.964;10.540;2023-07-13T13:09:03;28.70;96.60
16102;DHT22;56411;52.964;10.540;2023-07-13T13:11:31;27.60;97.90
16102;DHT22;56411;52.964;10.540;2023-07-13T13:14:00;26.80;98.60
16102;DHT22;56411;52.964;10.540;2023-07-13T13:16:32;26.40;99.20
16102;DHT22;56411;52.964;10.540;2023-07-13T13:19:09;26.50;98.70
16102;DHT22;56411;52.964;10.540;2023-07-13T13:21:38;26.10;99.30
16102;DHT22;56411;52.964;10.540;2023-07-13T13:24:11;23.60;99.90
16102;DHT22;56411;52.964;10.540;2023-07-13T13:26:38;22.00;99.90
16102;DHT22;56411;52.964;10.540;2023-07-13T13:29:13;21.30;99.90
16102;DHT22;56411;52.964;10.540;2023-07-13T13:31:41;20.60;99.90
16102;DHT22;56411;52.964;10.540;2023-07-13T13:34:10;19.70;99.90
16102;DHT22;56411;52.964;10.540;2023-07-13T13:36:40;19.20;99.90
16102;DHT22;56411;52.964;10.540;2023-07-13T13:39:19;18.90;99.90
16102;DHT22;56411;52.964;10.540;2023-07-13T13:41:48;18.10;99.90
16102;DHT22;56411;52.964;10.540;2023-07-13T13:44:16;17.60;99.90
16102;DHT22;56411;52.964;10.540;2023-07-13T13:46:45;17.30;99.90
16102;DHT22;56411;52.964;10.540;2023-07-13T13:49:15;17.40;99.90
16102;DHT22;56411;52.964;10.540;2023-07-13T13:51:45;18.30;99.90
16102;DHT22;56411;52.964;10.540;2023-07-13T13:54:13;18.60;99.90
16102;DHT22;56411;52.964;10.540;2023-07-13T13:56:42;18.90;99.90
16102;DHT22;56411;52.964;10.540;2023-07-13T13:59:10;19.20;99.90
16102;DHT22;56411;52.964;10.540;2023-07-13T14:01:37;19.40;99.90
16102;DHT22;56411;52.964;10.540;2023-07-13T14:04:06;19.50;99.90
16102;DHT22;56411;52.964;10.540;2023-07-13T14:06:34;19.80;99.90
16102;DHT22;56411;52.964;10.540;2023-07-13T14:09:04;19.60;99.90
16102;DHT22;56411;52.964;10.540;2023-07-13T14:11:32;19.50;99.90
16102;DHT22;56411;52.964;10.540;2023-07-13T14:14:00;19.20;99.90
16102;DHT22;56411;52.964;10.540;2023-07-13T14:16:31;18.80;99.90
16102;DHT22;56411;52.964;10.540;2023-07-13T14:19:00;18.40;99.90
16102;DHT22;56411;52.964;10.540;2023-07-13T14:21:28;18.10;99.90
16102;DHT22;56411;52.964;10.540;2023-07-13T14:23:56;18.00;99.90
16102;DHT22;56411;52.964;10.540;2023-07-13T14:26:26;18.00;99.90
16102;DHT22;56411;52.964;10.540;2023-07-13T14:28:55;18.10;99.90
16102;DHT22;56411;52.964;10.540;2023-07-13T14:31:25;18.10;99.90
16102;DHT22;56411;52.964;10.540;2023-07-13T14:33:54;18.00;99.90
16102;DHT22;56411;52.964;10.540;2023-07-13T14:36:27;18.10;99.90
16102;DHT22;56411;52.964;10.540;2023-07-13T14:38:55;18.00;99.90
16102;DHT22;56411;52.964;10.540;2023-07-13T14:41:22;17.90;99.90
16102;DHT22;56411;52.964;10.540;2023-07-13T14:43:51;18.00;99.90
16102;DHT22;56411;52.964;10.540;2023-07-13T14:46:35;18.20;99.90
16102;DHT22;56411;52.964;10.540;2023-07-13T14:49:05;18.40;99.90
16102;DHT22;56411;52.964;10.540;2023-07-13T14:51:33;18.70;99.90
16102;DHT22;56411;52.964;10.540;2023-07-13T14:54:03;19.00;99.90
16102;DHT22;56411;52.964;10.540;2023-07-13T14:56:30;19.30;99.90
16102;DHT22;56411;52.964;10.540;2023-07-13T14:58:59;19.40;99.90
16102;DHT22;56411;52.964;10.540;2023-07-13T15:01:26;19.60;99.90
16102;DHT22;56411;52.964;10.540;2023-07-13T15:03:53;19.70;99.90
16102;DHT22;56411;52.964;10.540;2023-07-13T15:06:21;20.60;99.90
16102;DHT22;56411;52.964;10.540;2023-07-13T15:08:48;22.30;99.90
16102;DHT22;56411;52.964;10.540;2023-07-13T15:11:15;23.40;99.90
16102;DHT22;56411;52.964;10.540;2023-07-13T15:13:43;24.10;99.90
16102;DHT22;56411;52.964;10.540;2023-07-13T15:16:17;24.30;99.90
16102;DHT22;56411;52.964;10.540;2023-07-13T15:18:46;24.40;99.90
16102;DHT22;56411;52.964;10.540;2023-07-13T15:21:17;23.90;99.90
16102;DHT22;56411;52.964;10.540;2023-07-13T15:23:45;22.90;99.90
16102;DHT22;56411;52.964;10.540;2023-07-13T15:26:13;22.70;99.90
16102;DHT22;56411;52.964;10.540;2023-07-13T15:28:41;22.40;99.90
16102;DHT22;56411;52.964;10.540;2023-07-13T15:31:19;22.20;99.90
16102;DHT22;56411;52.964;10.540;2023-07-13T15:36:16;21.80;99.90
16102;DHT22;56411;52.964;10.540;2023-07-13T15:38:44;21.80;99.90
16102;DHT22;56411;52.964;10.540;2023-07-13T15:41:18;22.20;99.90
16102;DHT22;56411;52.964;10.540;2023-07-13T15:43:46;23.10;99.90
16102;DHT22;56411;52.964;10.540;2023-07-13T15:46:13;23.70;99.90
16102;DHT22;56411;52.964;10.540;2023-07-13T15:48:42;24.10;99.90
16102;DHT22;56411;52.964;10.540;2023-07-13T15:51:19;24.20;99.90
16102;DHT22;56411;52.964;10.540;2023-07-13T15:53:48;24.60;99.90
16102;DHT22;56411;52.964;10.540;2023-07-13T15:56:19;24.50;99.90
16102;DHT22;56411;52.964;10.540;2023-07-13T15:58:48;24.80;99.90
16102;DHT22;56411;52.964;10.540;2023-07-13T16:01:16;24.60;99.90
16102;DHT22;56411;52.964;10.540;2023-07-13T16:03:46;24.70;99.90
16102;DHT22;56411;52.964;10.540;2023-07-13T16:06:16;24.20;99.90
16102;DHT22;56411;52.964;10.540;2023-07-13T16:08:46;24.60;99.90
16102;DHT22;56411;52.964;10.540;2023-07-13T16:11:20;25.20;99.90
16102;DHT22;56411;52.964;10.540;2023-07-13T16:13:49;25.40;99.90
16102;DHT22;56411;52.964;10.540;2023-07-13T16:16:21;24.80;99.90
16102;DHT22;56411;52.964;10.540;2023-07-13T16:18:53;24.20;99.90
16102;DHT22;56411;52.964;10.540;2023-07-13T16:21:25;24.70;99.90
16102;DHT22;56411;52.964;10.540;2023-07-13T16:23:54;25.00;99.90
16102;DHT22;56411;52.964;10.540;2023-07-13T16:26:29;25.40;99.90
16102;DHT22;56411;52.964;10.540;2023-07-13T16:29:10;25.90;99.90
16102;DHT22;56411;52.964;10.540;2023-07-13T16:31:37;26.30;99.90
16102;DHT22;56411;52.964;10.540;2023-07-13T16:34:06;26.30;99.90
16102;DHT22;56411;52.964;10.540;2023-07-13T16:36:35;26.20;99.90
16102;DHT22;56411;52.964;10.540;2023-07-13T16:39:10;25.90;99.90
16102;DHT22;56411;52.964;10.540;2023-07-13T16:41:38;25.70;99.90